<?xml version="1.0" encoding="utf-8"?>
<gpx xmlns:xsi="http://www.w3.org/2001/XMLSchema-instance" xmlns:xsd="http://www.w3.org/2001/XMLSchema" version="1.1" creator="Shapelink.com" xmlns="http://www.topografix.com/GPX/1/1" xmlns:gpxtpx="http://www.garmin.com/xmlschemas/TrackPointExtension/v1">
  <metadata>
    <name>Løping 3.05 km, 2012-07-11</name>
    <desc></desc>
    <author><name>Mikael Blom</name></author> 
    <time>2012-07-11T08:42:15Z</time>
  </metadata>
  <trk>
    <name>Løping 3.05 km, 2012-07-11</name>
    <trkseg>
      <trkpt lat="59.9788769" lon="17.7392539">
        <ele>37.6287</ele>
        <time>2012-07-11T08:42:15Z</time>
      </trkpt>
      <trkpt lat="59.979078" lon="17.7391854">
        <ele>40.5128</ele>
        <time>2012-07-11T08:42:20Z</time>
      </trkpt>
      <trkpt lat="59.9792837" lon="17.7390679">
        <ele>41.9547</ele>
        <time>2012-07-11T08:42:26Z</time>
      </trkpt>
      <trkpt lat="59.9794246" lon="17.73896">
        <ele>43.3966</ele>
        <time>2012-07-11T08:42:31Z</time>
      </trkpt>
      <trkpt lat="59.9796228" lon="17.7388803">
        <ele>48.684</ele>
        <time>2012-07-11T08:42:36Z</time>
      </trkpt>
      <trkpt lat="59.9796526" lon="17.7389114">
        <ele>55.8938</ele>
        <time>2012-07-11T08:42:40Z</time>
      </trkpt>
      <trkpt lat="59.9798079" lon="17.7388558">
        <ele>63.5844</ele>
        <time>2012-07-11T08:42:45Z</time>
      </trkpt>
      <trkpt lat="59.980057" lon="17.7387021">
        <ele>74.6395</ele>
        <time>2012-07-11T08:42:50Z</time>
      </trkpt>
      <trkpt lat="59.9801405" lon="17.7386203">
        <ele>77.0428</ele>
        <time>2012-07-11T08:42:52Z</time>
      </trkpt>
      <trkpt lat="59.9802983" lon="17.7386042">
        <ele>80.8882</ele>
        <time>2012-07-11T08:42:56Z</time>
      </trkpt>
      <trkpt lat="59.9803495" lon="17.7386385">
        <ele>80.4075</ele>
        <time>2012-07-11T08:42:58Z</time>
      </trkpt>
      <trkpt lat="59.9804896" lon="17.7386632">
        <ele>80.8882</ele>
        <time>2012-07-11T08:43:02Z</time>
      </trkpt>
      <trkpt lat="59.9806139" lon="17.7387332">
        <ele>84.7334</ele>
        <time>2012-07-11T08:43:08Z</time>
      </trkpt>
      <trkpt lat="59.9807484" lon="17.7386621">
        <ele>81.3688</ele>
        <time>2012-07-11T08:43:12Z</time>
      </trkpt>
      <trkpt lat="59.9807308" lon="17.7386336">
        <ele>71.7555</ele>
        <time>2012-07-11T08:43:17Z</time>
      </trkpt>
      <trkpt lat="59.9808009" lon="17.7386178">
        <ele>66.949</ele>
        <time>2012-07-11T08:43:23Z</time>
      </trkpt>
      <trkpt lat="59.9808911" lon="17.7385643">
        <ele>65.0264</ele>
        <time>2012-07-11T08:43:28Z</time>
      </trkpt>
      <trkpt lat="59.9810313" lon="17.7384846">
        <ele>62.1423</ele>
        <time>2012-07-11T08:43:33Z</time>
      </trkpt>
      <trkpt lat="59.9812252" lon="17.7383654">
        <ele>63.1036</ele>
        <time>2012-07-11T08:43:38Z</time>
      </trkpt>
      <trkpt lat="59.9813598" lon="17.7382727">
        <ele>59.2584</ele>
        <time>2012-07-11T08:43:43Z</time>
      </trkpt>
      <trkpt lat="59.9815485" lon="17.7382085">
        <ele>68.8716</ele>
        <time>2012-07-11T08:43:48Z</time>
      </trkpt>
      <trkpt lat="59.9816603" lon="17.7382048">
        <ele>65.0264</ele>
        <time>2012-07-11T08:43:54Z</time>
      </trkpt>
      <trkpt lat="59.9817557" lon="17.7382017">
        <ele>59.7391</ele>
        <time>2012-07-11T08:44:00Z</time>
      </trkpt>
      <trkpt lat="59.9818514" lon="17.7381319">
        <ele>55.4131</ele>
        <time>2012-07-11T08:44:05Z</time>
      </trkpt>
      <trkpt lat="59.9820786" lon="17.7380755">
        <ele>65.0264</ele>
        <time>2012-07-11T08:44:13Z</time>
      </trkpt>
      <trkpt lat="59.9822372" lon="17.737993">
        <ele>68.8716</ele>
        <time>2012-07-11T08:44:18Z</time>
      </trkpt>
      <trkpt lat="59.9823704" lon="17.7379442">
        <ele>66.4683</ele>
        <time>2012-07-11T08:44:25Z</time>
      </trkpt>
      <trkpt lat="59.9824117" lon="17.7379366">
        <ele>67.9103</ele>
        <time>2012-07-11T08:44:27Z</time>
      </trkpt>
      <trkpt lat="59.9825461" lon="17.7379712">
        <ele>74.1588</ele>
        <time>2012-07-11T08:44:33Z</time>
      </trkpt>
      <trkpt lat="59.9827014" lon="17.7379164">
        <ele>71.2749</ele>
        <time>2012-07-11T08:44:38Z</time>
      </trkpt>
      <trkpt lat="59.9827875" lon="17.737928">
        <ele>69.3523</ele>
        <time>2012-07-11T08:44:42Z</time>
      </trkpt>
      <trkpt lat="59.9828251" lon="17.7380458">
        <ele>66.949</ele>
        <time>2012-07-11T08:44:47Z</time>
      </trkpt>
      <trkpt lat="59.9828937" lon="17.738068">
        <ele>69.3523</ele>
        <time>2012-07-11T08:44:50Z</time>
      </trkpt>
      <trkpt lat="59.9830455" lon="17.7380159">
        <ele>66.4683</ele>
        <time>2012-07-11T08:44:56Z</time>
      </trkpt>
      <trkpt lat="59.9831982" lon="17.7380075">
        <ele>67.4297</ele>
        <time>2012-07-11T08:45:02Z</time>
      </trkpt>
      <trkpt lat="59.9832774" lon="17.737986">
        <ele>62.1423</ele>
        <time>2012-07-11T08:45:07Z</time>
      </trkpt>
      <trkpt lat="59.98335" lon="17.7379987">
        <ele>56.8551</ele>
        <time>2012-07-11T08:45:12Z</time>
      </trkpt>
      <trkpt lat="59.9834085" lon="17.7379876">
        <ele>44.358</ele>
        <time>2012-07-11T08:45:18Z</time>
      </trkpt>
      <trkpt lat="59.983476" lon="17.7379589">
        <ele>43.3966</ele>
        <time>2012-07-11T08:45:21Z</time>
      </trkpt>
      <trkpt lat="59.9837085" lon="17.7379583">
        <ele>54.9324</ele>
        <time>2012-07-11T08:45:27Z</time>
      </trkpt>
      <trkpt lat="59.9838748" lon="17.7379342">
        <ele>56.3745</ele>
        <time>2012-07-11T08:45:33Z</time>
      </trkpt>
      <trkpt lat="59.9839773" lon="17.7378697">
        <ele>56.3745</ele>
        <time>2012-07-11T08:45:37Z</time>
      </trkpt>
      <trkpt lat="59.984007" lon="17.73786">
        <ele>55.8938</ele>
        <time>2012-07-11T08:45:38Z</time>
      </trkpt>
      <trkpt lat="59.9841474" lon="17.7378908">
        <ele>54.9324</ele>
        <time>2012-07-11T08:45:43Z</time>
      </trkpt>
      <trkpt lat="59.9843052" lon="17.7379045">
        <ele>54.9324</ele>
        <time>2012-07-11T08:45:48Z</time>
      </trkpt>
      <trkpt lat="59.9843323" lon="17.7379144">
        <ele>53.4905</ele>
        <time>2012-07-11T08:45:49Z</time>
      </trkpt>
      <trkpt lat="59.9845243" lon="17.7379138">
        <ele>56.3745</ele>
        <time>2012-07-11T08:45:56Z</time>
      </trkpt>
      <trkpt lat="59.9846649" lon="17.737965">
        <ele>54.9324</ele>
        <time>2012-07-11T08:46:01Z</time>
      </trkpt>
      <trkpt lat="59.9846936" lon="17.7379744">
        <ele>55.4131</ele>
        <time>2012-07-11T08:46:02Z</time>
      </trkpt>
      <trkpt lat="59.9848627" lon="17.7380088">
        <ele>55.4131</ele>
        <time>2012-07-11T08:46:08Z</time>
      </trkpt>
      <trkpt lat="59.9849948" lon="17.738064">
        <ele>54.9324</ele>
        <time>2012-07-11T08:46:13Z</time>
      </trkpt>
      <trkpt lat="59.9851181" lon="17.7381029">
        <ele>54.9324</ele>
        <time>2012-07-11T08:46:18Z</time>
      </trkpt>
      <trkpt lat="59.9852028" lon="17.7381152">
        <ele>55.4131</ele>
        <time>2012-07-11T08:46:22Z</time>
      </trkpt>
      <trkpt lat="59.9853086" lon="17.7381345">
        <ele>53.0098</ele>
        <time>2012-07-11T08:46:27Z</time>
      </trkpt>
      <trkpt lat="59.9853382" lon="17.7381395">
        <ele>53.4905</ele>
        <time>2012-07-11T08:46:28Z</time>
      </trkpt>
      <trkpt lat="59.9854361" lon="17.738195">
        <ele>50.126</ele>
        <time>2012-07-11T08:46:33Z</time>
      </trkpt>
      <trkpt lat="59.9855846" lon="17.7382482">
        <ele>52.0486</ele>
        <time>2012-07-11T08:46:38Z</time>
      </trkpt>
      <trkpt lat="59.9857317" lon="17.7383664">
        <ele>50.126</ele>
        <time>2012-07-11T08:46:44Z</time>
      </trkpt>
      <trkpt lat="59.9858546" lon="17.738525">
        <ele>45.7999</ele>
        <time>2012-07-11T08:46:50Z</time>
      </trkpt>
      <trkpt lat="59.9859645" lon="17.7386155">
        <ele>40.5128</ele>
        <time>2012-07-11T08:46:55Z</time>
      </trkpt>
      <trkpt lat="59.9861075" lon="17.7386722">
        <ele>39.5513</ele>
        <time>2012-07-11T08:47:01Z</time>
      </trkpt>
      <trkpt lat="59.9862616" lon="17.7387346">
        <ele>44.358</ele>
        <time>2012-07-11T08:47:06Z</time>
      </trkpt>
      <trkpt lat="59.9863874" lon="17.738818">
        <ele>49.6453</ele>
        <time>2012-07-11T08:47:10Z</time>
      </trkpt>
      <trkpt lat="59.9865203" lon="17.7389461">
        <ele>50.6066</ele>
        <time>2012-07-11T08:47:15Z</time>
      </trkpt>
      <trkpt lat="59.9867099" lon="17.7390703">
        <ele>58.7777</ele>
        <time>2012-07-11T08:47:21Z</time>
      </trkpt>
      <trkpt lat="59.9868959" lon="17.7392316">
        <ele>65.0264</ele>
        <time>2012-07-11T08:47:27Z</time>
      </trkpt>
      <trkpt lat="59.9870594" lon="17.7392989">
        <ele>68.3909</ele>
        <time>2012-07-11T08:47:33Z</time>
      </trkpt>
      <trkpt lat="59.9871745" lon="17.7393137">
        <ele>73.6782</ele>
        <time>2012-07-11T08:47:39Z</time>
      </trkpt>
      <trkpt lat="59.9872315" lon="17.7392947">
        <ele>73.6782</ele>
        <time>2012-07-11T08:47:43Z</time>
      </trkpt>
      <trkpt lat="59.9873427" lon="17.7392683">
        <ele>74.1588</ele>
        <time>2012-07-11T08:47:48Z</time>
      </trkpt>
      <trkpt lat="59.9874951" lon="17.7392304">
        <ele>68.8716</ele>
        <time>2012-07-11T08:47:55Z</time>
      </trkpt>
      <trkpt lat="59.9877545" lon="17.739175">
        <ele>77.0428</ele>
        <time>2012-07-11T08:48:02Z</time>
      </trkpt>
      <trkpt lat="59.9879667" lon="17.7391414">
        <ele>87.1366</ele>
        <time>2012-07-11T08:48:08Z</time>
      </trkpt>
      <trkpt lat="59.9881183" lon="17.7391101">
        <ele>92.424</ele>
        <time>2012-07-11T08:48:13Z</time>
      </trkpt>
      <trkpt lat="59.9882779" lon="17.7390759">
        <ele>92.424</ele>
        <time>2012-07-11T08:48:19Z</time>
      </trkpt>
      <trkpt lat="59.9883913" lon="17.7390452">
        <ele>86.1753</ele>
        <time>2012-07-11T08:48:25Z</time>
      </trkpt>
      <trkpt lat="59.9885795" lon="17.7389544">
        <ele>83.2914</ele>
        <time>2012-07-11T08:48:33Z</time>
      </trkpt>
      <trkpt lat="59.9887538" lon="17.7388927">
        <ele>89.5399</ele>
        <time>2012-07-11T08:48:38Z</time>
      </trkpt>
      <trkpt lat="59.988899" lon="17.7388068">
        <ele>92.424</ele>
        <time>2012-07-11T08:48:43Z</time>
      </trkpt>
      <trkpt lat="59.9890315" lon="17.7387309">
        <ele>90.9819</ele>
        <time>2012-07-11T08:48:48Z</time>
      </trkpt>
      <trkpt lat="59.9891211" lon="17.7385939">
        <ele>86.1753</ele>
        <time>2012-07-11T08:48:54Z</time>
      </trkpt>
      <trkpt lat="59.9892207" lon="17.7384697">
        <ele>85.6946</ele>
        <time>2012-07-11T08:48:59Z</time>
      </trkpt>
      <trkpt lat="59.9893372" lon="17.7383898">
        <ele>85.6946</ele>
        <time>2012-07-11T08:49:04Z</time>
      </trkpt>
      <trkpt lat="59.9894505" lon="17.7383499">
        <ele>82.8108</ele>
        <time>2012-07-11T08:49:09Z</time>
      </trkpt>
      <trkpt lat="59.9895673" lon="17.73831">
        <ele>80.8882</ele>
        <time>2012-07-11T08:49:14Z</time>
      </trkpt>
      <trkpt lat="59.989707" lon="17.7382832">
        <ele>77.5234</ele>
        <time>2012-07-11T08:49:20Z</time>
      </trkpt>
      <trkpt lat="59.989833" lon="17.7382502">
        <ele>77.5234</ele>
        <time>2012-07-11T08:49:25Z</time>
      </trkpt>
      <trkpt lat="59.9899448" lon="17.7382085">
        <ele>74.1588</ele>
        <time>2012-07-11T08:49:30Z</time>
      </trkpt>
      <trkpt lat="59.9900935" lon="17.7381675">
        <ele>69.8329</ele>
        <time>2012-07-11T08:49:36Z</time>
      </trkpt>
      <trkpt lat="59.9901182" lon="17.7381585">
        <ele>69.8329</ele>
        <time>2012-07-11T08:49:37Z</time>
      </trkpt>
      <trkpt lat="59.9902965" lon="17.7381158">
        <ele>76.5621</ele>
        <time>2012-07-11T08:49:42Z</time>
      </trkpt>
      <trkpt lat="59.9904639" lon="17.7380638">
        <ele>78.004</ele>
        <time>2012-07-11T08:49:48Z</time>
      </trkpt>
      <trkpt lat="59.9906028" lon="17.7379987">
        <ele>81.3688</ele>
        <time>2012-07-11T08:49:53Z</time>
      </trkpt>
      <trkpt lat="59.9907022" lon="17.7378956">
        <ele>83.2914</ele>
        <time>2012-07-11T08:49:57Z</time>
      </trkpt>
      <trkpt lat="59.9908793" lon="17.7377391">
        <ele>86.656</ele>
        <time>2012-07-11T08:50:03Z</time>
      </trkpt>
      <trkpt lat="59.9910211" lon="17.7375641">
        <ele>85.6946</ele>
        <time>2012-07-11T08:50:09Z</time>
      </trkpt>
      <trkpt lat="59.9911382" lon="17.7374739">
        <ele>86.1753</ele>
        <time>2012-07-11T08:50:13Z</time>
      </trkpt>
      <trkpt lat="59.9913637" lon="17.7374262">
        <ele>91.4625</ele>
        <time>2012-07-11T08:50:20Z</time>
      </trkpt>
      <trkpt lat="59.9915201" lon="17.7374271">
        <ele>91.4625</ele>
        <time>2012-07-11T08:50:25Z</time>
      </trkpt>
      <trkpt lat="59.9916605" lon="17.7374671">
        <ele>82.3301</ele>
        <time>2012-07-11T08:50:31Z</time>
      </trkpt>
      <trkpt lat="59.9917853" lon="17.7375281">
        <ele>71.2749</ele>
        <time>2012-07-11T08:50:37Z</time>
      </trkpt>
      <trkpt lat="59.9919558" lon="17.7375145">
        <ele>66.949</ele>
        <time>2012-07-11T08:50:44Z</time>
      </trkpt>
      <trkpt lat="59.9921003" lon="17.7374492">
        <ele>64.0651</ele>
        <time>2012-07-11T08:50:49Z</time>
      </trkpt>
      <trkpt lat="59.9921955" lon="17.7373972">
        <ele>64.5457</ele>
        <time>2012-07-11T08:50:52Z</time>
      </trkpt>
      <trkpt lat="59.9922137" lon="17.7373916">
        <ele>64.5457</ele>
        <time>2012-07-11T08:50:53Z</time>
      </trkpt>
      <trkpt lat="59.9922415" lon="17.7374848">
        <ele>60.2197</ele>
        <time>2012-07-11T08:50:58Z</time>
      </trkpt>
      <trkpt lat="59.9921061" lon="17.7376282">
        <ele>59.2584</ele>
        <time>2012-07-11T08:51:03Z</time>
      </trkpt>
      <trkpt lat="59.9918941" lon="17.7377812">
        <ele>51.0872</ele>
        <time>2012-07-11T08:51:09Z</time>
      </trkpt>
      <trkpt lat="59.9916723" lon="17.7378132">
        <ele>40.0321</ele>
        <time>2012-07-11T08:51:15Z</time>
      </trkpt>
      <trkpt lat="59.9915033" lon="17.7378667">
        <ele>32.3416</ele>
        <time>2012-07-11T08:51:19Z</time>
      </trkpt>
      <trkpt lat="59.9913942" lon="17.7379215">
        <ele>34.2642</ele>
        <time>2012-07-11T08:51:24Z</time>
      </trkpt>
      <trkpt lat="59.9913764" lon="17.7378863">
        <ele>39.5513</ele>
        <time>2012-07-11T08:51:28Z</time>
      </trkpt>
      <trkpt lat="59.9913325" lon="17.7378754">
        <ele>40.9934</ele>
        <time>2012-07-11T08:51:32Z</time>
      </trkpt>
      <trkpt lat="59.9911725" lon="17.7379645">
        <ele>39.0707</ele>
        <time>2012-07-11T08:51:36Z</time>
      </trkpt>
      <trkpt lat="59.9910537" lon="17.7381033">
        <ele>32.8223</ele>
        <time>2012-07-11T08:51:41Z</time>
      </trkpt>
      <trkpt lat="59.9909233" lon="17.7382286">
        <ele>26.0929</ele>
        <time>2012-07-11T08:51:46Z</time>
      </trkpt>
      <trkpt lat="59.990804" lon="17.738354">
        <ele>11.6732</ele>
        <time>2012-07-11T08:51:51Z</time>
      </trkpt>
      <trkpt lat="59.9907535" lon="17.7384136">
        <ele>5.42456</ele>
        <time>2012-07-11T08:51:53Z</time>
      </trkpt>
      <trkpt lat="59.99064" lon="17.7385989">
        <ele>0</ele>
        <time>2012-07-11T08:51:59Z</time>
      </trkpt>
      <trkpt lat="59.9905788" lon="17.7387145">
        <ele>0</ele>
        <time>2012-07-11T08:52:02Z</time>
      </trkpt>
      <trkpt lat="59.9904622" lon="17.7387969">
        <ele>0</ele>
        <time>2012-07-11T08:52:06Z</time>
      </trkpt>
      <trkpt lat="59.9902674" lon="17.7388322">
        <ele>0</ele>
        <time>2012-07-11T08:52:14Z</time>
      </trkpt>
      <trkpt lat="59.9901334" lon="17.7389161">
        <ele>0</ele>
        <time>2012-07-11T08:52:20Z</time>
      </trkpt>
      <trkpt lat="59.9900723" lon="17.7389928">
        <ele>0</ele>
        <time>2012-07-11T08:52:24Z</time>
      </trkpt>
      <trkpt lat="59.9898964" lon="17.7391205">
        <ele>0</ele>
        <time>2012-07-11T08:52:30Z</time>
      </trkpt>
      <trkpt lat="59.9899282" lon="17.738967">
        <ele>0</ele>
        <time>2012-07-11T08:52:35Z</time>
      </trkpt>
      <trkpt lat="59.9898328" lon="17.7390654">
        <ele>10.7118</ele>
        <time>2012-07-11T08:52:39Z</time>
      </trkpt>
      <trkpt lat="59.9897765" lon="17.7391129">
        <ele>15.999</ele>
        <time>2012-07-11T08:52:41Z</time>
      </trkpt>
      <trkpt lat="59.9896329" lon="17.73907">
        <ele>27.5349</ele>
        <time>2012-07-11T08:52:47Z</time>
      </trkpt>
      <trkpt lat="59.98946" lon="17.7389917">
        <ele>32.3416</ele>
        <time>2012-07-11T08:52:53Z</time>
      </trkpt>
      <trkpt lat="59.9893207" lon="17.7390136">
        <ele>35.7061</ele>
        <time>2012-07-11T08:52:58Z</time>
      </trkpt>
      <trkpt lat="59.9891543" lon="17.7390528">
        <ele>39.0707</ele>
        <time>2012-07-11T08:53:04Z</time>
      </trkpt>
      <trkpt lat="59.9889685" lon="17.739115">
        <ele>46.7612</ele>
        <time>2012-07-11T08:53:10Z</time>
      </trkpt>
      <trkpt lat="59.9888104" lon="17.7391392">
        <ele>50.126</ele>
        <time>2012-07-11T08:53:15Z</time>
      </trkpt>
      <trkpt lat="59.9886637" lon="17.7391792">
        <ele>52.5292</ele>
        <time>2012-07-11T08:53:20Z</time>
      </trkpt>
      <trkpt lat="59.9885695" lon="17.7392697">
        <ele>53.9712</ele>
        <time>2012-07-11T08:53:24Z</time>
      </trkpt>
      <trkpt lat="59.9884177" lon="17.7393273">
        <ele>53.9712</ele>
        <time>2012-07-11T08:53:30Z</time>
      </trkpt>
      <trkpt lat="59.9883929" lon="17.7393399">
        <ele>54.4518</ele>
        <time>2012-07-11T08:53:31Z</time>
      </trkpt>
      <trkpt lat="59.9882098" lon="17.7394004">
        <ele>53.4905</ele>
        <time>2012-07-11T08:53:37Z</time>
      </trkpt>
      <trkpt lat="59.9881333" lon="17.73941">
        <ele>55.8938</ele>
        <time>2012-07-11T08:53:41Z</time>
      </trkpt>
      <trkpt lat="59.9881172" lon="17.7394157">
        <ele>56.8551</ele>
        <time>2012-07-11T08:53:42Z</time>
      </trkpt>
      <trkpt lat="59.9880069" lon="17.7393983">
        <ele>57.3358</ele>
        <time>2012-07-11T08:53:47Z</time>
      </trkpt>
      <trkpt lat="59.9878277" lon="17.7394719">
        <ele>53.4905</ele>
        <time>2012-07-11T08:53:54Z</time>
      </trkpt>
      <trkpt lat="59.9876899" lon="17.7395609">
        <ele>51.0872</ele>
        <time>2012-07-11T08:53:59Z</time>
      </trkpt>
      <trkpt lat="59.9875148" lon="17.7395688">
        <ele>45.7999</ele>
        <time>2012-07-11T08:54:06Z</time>
      </trkpt>
      <trkpt lat="59.9874018" lon="17.7395636">
        <ele>40.9934</ele>
        <time>2012-07-11T08:54:11Z</time>
      </trkpt>
      <trkpt lat="59.9873247" lon="17.739572">
        <ele>34.2642</ele>
        <time>2012-07-11T08:54:16Z</time>
      </trkpt>
      <trkpt lat="59.9872352" lon="17.7395941">
        <ele>28.4962</ele>
        <time>2012-07-11T08:54:21Z</time>
      </trkpt>
      <trkpt lat="59.9871733" lon="17.7395351">
        <ele>23.209</ele>
        <time>2012-07-11T08:54:26Z</time>
      </trkpt>
      <trkpt lat="59.9870562" lon="17.7394487">
        <ele>18.8831</ele>
        <time>2012-07-11T08:54:32Z</time>
      </trkpt>
      <trkpt lat="59.9869493" lon="17.7393472">
        <ele>19.8444</ele>
        <time>2012-07-11T08:54:36Z</time>
      </trkpt>
      <trkpt lat="59.986821" lon="17.7392026">
        <ele>21.767</ele>
        <time>2012-07-11T08:54:41Z</time>
      </trkpt>
      <trkpt lat="59.9866604" lon="17.7390319">
        <ele>25.1317</ele>
        <time>2012-07-11T08:54:47Z</time>
      </trkpt>
      <trkpt lat="59.9865389" lon="17.7389182">
        <ele>28.0155</ele>
        <time>2012-07-11T08:54:52Z</time>
      </trkpt>
      <trkpt lat="59.9863855" lon="17.7387891">
        <ele>32.3416</ele>
        <time>2012-07-11T08:54:57Z</time>
      </trkpt>
      <trkpt lat="59.9861901" lon="17.7386304">
        <ele>40.0321</ele>
        <time>2012-07-11T08:55:03Z</time>
      </trkpt>
      <trkpt lat="59.986029" lon="17.7385892">
        <ele>44.358</ele>
        <time>2012-07-11T08:55:08Z</time>
      </trkpt>
      <trkpt lat="59.985856" lon="17.7384979">
        <ele>45.3192</ele>
        <time>2012-07-11T08:55:14Z</time>
      </trkpt>
      <trkpt lat="59.9856788" lon="17.7384679">
        <ele>43.8773</ele>
        <time>2012-07-11T08:55:20Z</time>
      </trkpt>
      <trkpt lat="59.9855607" lon="17.7384415">
        <ele>43.3966</ele>
        <time>2012-07-11T08:55:25Z</time>
      </trkpt>
      <trkpt lat="59.9853967" lon="17.7384191">
        <ele>39.0707</ele>
        <time>2012-07-11T08:55:32Z</time>
      </trkpt>
      <trkpt lat="59.9853729" lon="17.7384094">
        <ele>38.5901</ele>
        <time>2012-07-11T08:55:33Z</time>
      </trkpt>
      <trkpt lat="59.9851786" lon="17.7383825">
        <ele>39.0707</ele>
        <time>2012-07-11T08:55:40Z</time>
      </trkpt>
      <trkpt lat="59.9850092" lon="17.7383872">
        <ele>41.9547</ele>
        <time>2012-07-11T08:55:46Z</time>
      </trkpt>
      <trkpt lat="59.9848549" lon="17.7383939">
        <ele>40.9934</ele>
        <time>2012-07-11T08:55:52Z</time>
      </trkpt>
      <trkpt lat="59.9847001" lon="17.7383328">
        <ele>42.916</ele>
        <time>2012-07-11T08:55:57Z</time>
      </trkpt>
      <trkpt lat="59.9845726" lon="17.7382794">
        <ele>42.916</ele>
        <time>2012-07-11T08:56:02Z</time>
      </trkpt>
      <trkpt lat="59.9844019" lon="17.7383008">
        <ele>41.9547</ele>
        <time>2012-07-11T08:56:08Z</time>
      </trkpt>
      <trkpt lat="59.9842997" lon="17.7382493">
        <ele>40.5128</ele>
        <time>2012-07-11T08:56:12Z</time>
      </trkpt>
      <trkpt lat="59.9842017" lon="17.7381872">
        <ele>39.5513</ele>
        <time>2012-07-11T08:56:16Z</time>
      </trkpt>
      <trkpt lat="59.9840632" lon="17.7382618">
        <ele>39.0707</ele>
        <time>2012-07-11T08:56:21Z</time>
      </trkpt>
      <trkpt lat="59.983892" lon="17.7382944">
        <ele>40.0321</ele>
        <time>2012-07-11T08:56:27Z</time>
      </trkpt>
      <trkpt lat="59.9837582" lon="17.7382643">
        <ele>39.5513</ele>
        <time>2012-07-11T08:56:32Z</time>
      </trkpt>
      <trkpt lat="59.9836085" lon="17.7383293">
        <ele>35.7061</ele>
        <time>2012-07-11T08:56:39Z</time>
      </trkpt>
      <trkpt lat="59.9834916" lon="17.7383156">
        <ele>34.2642</ele>
        <time>2012-07-11T08:56:44Z</time>
      </trkpt>
      <trkpt lat="59.9833781" lon="17.7382891">
        <ele>32.8223</ele>
        <time>2012-07-11T08:56:48Z</time>
      </trkpt>
      <trkpt lat="59.9832954" lon="17.7383409">
        <ele>31.8607</ele>
        <time>2012-07-11T08:56:51Z</time>
      </trkpt>
      <trkpt lat="59.9831072" lon="17.7383074">
        <ele>32.3416</ele>
        <time>2012-07-11T08:56:58Z</time>
      </trkpt>
      <trkpt lat="59.9830351" lon="17.7383074">
        <ele>31.8607</ele>
        <time>2012-07-11T08:57:01Z</time>
      </trkpt>
      <trkpt lat="59.9829081" lon="17.7382655">
        <ele>31.8607</ele>
        <time>2012-07-11T08:57:07Z</time>
      </trkpt>
      <trkpt lat="59.982857" lon="17.7382541">
        <ele>30.4188</ele>
        <time>2012-07-11T08:57:09Z</time>
      </trkpt>
      <trkpt lat="59.9826583" lon="17.7382778">
        <ele>28.0155</ele>
        <time>2012-07-11T08:57:16Z</time>
      </trkpt>
      <trkpt lat="59.982502" lon="17.738301">
        <ele>28.4962</ele>
        <time>2012-07-11T08:57:21Z</time>
      </trkpt>
      <trkpt lat="59.9823145" lon="17.7382678">
        <ele>32.3416</ele>
        <time>2012-07-11T08:57:27Z</time>
      </trkpt>
      <trkpt lat="59.9821208" lon="17.7382824">
        <ele>36.6675</ele>
        <time>2012-07-11T08:57:33Z</time>
      </trkpt>
      <trkpt lat="59.9819882" lon="17.7383564">
        <ele>40.0321</ele>
        <time>2012-07-11T08:57:38Z</time>
      </trkpt>
      <trkpt lat="59.9818659" lon="17.7384693">
        <ele>41.474</ele>
        <time>2012-07-11T08:57:43Z</time>
      </trkpt>
      <trkpt lat="59.9818266" lon="17.7385094">
        <ele>41.474</ele>
        <time>2012-07-11T08:57:45Z</time>
      </trkpt>
      <trkpt lat="59.9816787" lon="17.7385885">
        <ele>44.358</ele>
        <time>2012-07-11T08:57:51Z</time>
      </trkpt>
      <trkpt lat="59.9815558" lon="17.7386251">
        <ele>44.8386</ele>
        <time>2012-07-11T08:57:56Z</time>
      </trkpt>
      <trkpt lat="59.9813965" lon="17.7386349">
        <ele>43.8773</ele>
        <time>2012-07-11T08:58:01Z</time>
      </trkpt>
      <trkpt lat="59.981281" lon="17.7386769">
        <ele>43.8773</ele>
        <time>2012-07-11T08:58:05Z</time>
      </trkpt>
      <trkpt lat="59.9811598" lon="17.738668">
        <ele>46.2806</ele>
        <time>2012-07-11T08:58:09Z</time>
      </trkpt>
      <trkpt lat="59.9810215" lon="17.738696">
        <ele>44.8386</ele>
        <time>2012-07-11T08:58:15Z</time>
      </trkpt>
      <trkpt lat="59.9809175" lon="17.7387247">
        <ele>40.5128</ele>
        <time>2012-07-11T08:58:19Z</time>
      </trkpt>
      <trkpt lat="59.9807843" lon="17.7387312">
        <ele>36.1868</ele>
        <time>2012-07-11T08:58:24Z</time>
      </trkpt>
      <trkpt lat="59.980662" lon="17.7387874">
        <ele>34.2642</ele>
        <time>2012-07-11T08:58:29Z</time>
      </trkpt>
      <trkpt lat="59.9805909" lon="17.7388376">
        <ele>31.8607</ele>
        <time>2012-07-11T08:58:32Z</time>
      </trkpt>
      <trkpt lat="59.9804186" lon="17.7388819">
        <ele>28.9769</ele>
        <time>2012-07-11T08:58:38Z</time>
      </trkpt>
      <trkpt lat="59.9802876" lon="17.738834">
        <ele>27.5349</ele>
        <time>2012-07-11T08:58:43Z</time>
      </trkpt>
      <trkpt lat="59.9801265" lon="17.7388898">
        <ele>25.1317</ele>
        <time>2012-07-11T08:58:49Z</time>
      </trkpt>
      <trkpt lat="59.9799866" lon="17.7388">
        <ele>21.2864</ele>
        <time>2012-07-11T08:58:54Z</time>
      </trkpt>
      <trkpt lat="59.9798565" lon="17.7387784">
        <ele>17.9218</ele>
        <time>2012-07-11T08:58:59Z</time>
      </trkpt>
      <trkpt lat="59.9797293" lon="17.7387625">
        <ele>19.8444</ele>
        <time>2012-07-11T08:59:04Z</time>
      </trkpt>
      <trkpt lat="59.9796851" lon="17.7387658">
        <ele>20.8057</ele>
        <time>2012-07-11T08:59:06Z</time>
      </trkpt>
      <trkpt lat="59.9795717" lon="17.7388366">
        <ele>20.8057</ele>
        <time>2012-07-11T08:59:10Z</time>
      </trkpt>
      <trkpt lat="59.979419" lon="17.7389501">
        <ele>19.8444</ele>
        <time>2012-07-11T08:59:15Z</time>
      </trkpt>
      <trkpt lat="59.9792013" lon="17.7390878">
        <ele>23.6896</ele>
        <time>2012-07-11T08:59:21Z</time>
      </trkpt>
      <trkpt lat="59.9790314" lon="17.7391514">
        <ele>25.6123</ele>
        <time>2012-07-11T08:59:26Z</time>
      </trkpt>
      <trkpt lat="59.9789994" lon="17.7391674">
        <ele>25.6123</ele>
        <time>2012-07-11T08:59:27Z</time>
      </trkpt>
    </trkseg>
  </trk>
</gpx>